createdAt,value
2024-01-19T00:00:03.428Z,7.80
2024-01-19T00:04:07.896Z,7.43
2024-01-19T00:08:12.634Z,7.05
2024-01-19T00:12:15.559Z,6.80
2024-01-19T00:16:20.384Z,6.38
2024-01-19T00:20:24.508Z,6.32
2024-01-19T00:24:27.518Z,7.15
2024-01-19T00:28:30.421Z,6.43
2024-01-19T00:32:34.889Z,6.28
2024-01-19T00:36:37.898Z,6.20
2024-01-19T00:40:40.843Z,6.78
2024-01-19T00:44:43.862Z,7.10
2024-01-19T00:48:49.298Z,6.72
2024-01-19T00:52:52.268Z,7.15
2024-01-19T00:56:55.282Z,7.07
2024-01-19T01:00:58.534Z,6.78
2024-01-19T01:05:02.890Z,5.75
2024-01-19T01:09:05.854Z,6.65
2024-01-19T01:13:08.811Z,6.28
2024-01-19T01:17:11.779Z,5.80
2024-01-19T01:21:16.156Z,7.93
2024-01-19T01:25:19.407Z,6.65
2024-01-19T01:29:22.343Z,6.80
2024-01-19T01:33:25.477Z,6.18
2024-01-19T01:37:31.092Z,6.40
2024-01-19T01:41:34.079Z,7.10
2024-01-19T01:45:37.168Z,7.05
2024-01-19T01:49:40.311Z,7.03
2024-01-19T01:53:45.067Z,7.70
2024-01-19T01:57:48.984Z,7.57
2024-01-19T02:01:52.087Z,7.10
2024-01-19T02:05:55.186Z,7.13
2024-01-19T02:10:00.206Z,7.20
2024-01-19T02:14:05.598Z,7.20
2024-01-19T02:18:08.772Z,6.75
2024-01-19T02:22:11.924Z,7.18
2024-01-19T02:26:16.514Z,6.60
2024-01-19T02:30:19.635Z,8.10
2024-01-19T02:34:23.776Z,6.65
2024-01-19T02:38:26.747Z,7.05
2024-01-19T02:42:32.099Z,7.75
2024-01-19T02:46:39.453Z,7.55
2024-01-19T02:50:42.498Z,8.98
2024-01-19T02:54:45.521Z,7.53
2024-01-19T02:58:49.834Z,6.90
2024-01-19T03:02:53.015Z,6.95
2024-01-19T03:06:56.346Z,7.43
2024-01-19T03:10:59.300Z,6.93
2024-01-19T03:15:03.688Z,7.35
2024-01-19T03:19:06.677Z,6.40
2024-01-19T03:23:10.255Z,7.03
2024-01-19T03:27:13.753Z,8.13
2024-01-19T03:31:18.237Z,6.22
2024-01-19T03:35:22.324Z,6.07
2024-01-19T03:39:25.784Z,6.38
2024-01-19T03:43:28.805Z,6.60
2024-01-19T03:47:33.414Z,7.18
2024-01-19T03:51:36.442Z,6.70
2024-01-19T03:55:39.404Z,5.97
2024-01-19T03:59:43.124Z,7.35
2024-01-19T04:03:47.701Z,7.65
2024-01-19T04:07:50.782Z,7.00
2024-01-19T04:11:53.823Z,6.50
2024-01-19T04:15:56.935Z,5.22
2024-01-19T04:20:01.198Z,6.05
2024-01-19T04:24:05.295Z,5.93
2024-01-19T04:28:08.983Z,5.70
2024-01-19T04:32:12.042Z,6.03
2024-01-19T04:36:18.869Z,5.63
2024-01-19T04:40:21.822Z,5.32
2024-01-19T04:44:24.795Z,5.28
2024-01-19T04:48:27.881Z,5.35
2024-01-19T04:52:32.210Z,6.00
2024-01-19T04:56:35.433Z,5.75
2024-01-19T05:00:38.442Z,7.60
2024-01-19T05:04:43.036Z,7.75
2024-01-19T05:08:47.560Z,21.33
2024-01-19T05:12:51.566Z,9.10
2024-01-19T05:16:54.564Z,8.95
2024-01-19T05:20:57.883Z,9.32
2024-01-19T05:25:02.832Z,11.10
2024-01-19T05:29:06.461Z,9.35
2024-01-19T05:33:09.508Z,10.00
2024-01-19T05:37:12.557Z,10.52
2024-01-19T05:41:22.628Z,10.02
2024-01-19T05:45:25.680Z,9.70
2024-01-19T05:49:28.554Z,10.38
2024-01-19T05:53:31.512Z,10.23
2024-01-19T05:57:35.798Z,34.72
2024-01-19T06:01:44.606Z,18.95
2024-01-19T06:05:47.784Z,12.82
2024-01-19T06:09:50.834Z,12.57
2024-01-19T06:13:55.213Z,12.10
2024-01-19T06:17:58.172Z,12.25
2024-01-19T06:22:01.127Z,10.63
2024-01-19T06:26:04.094Z,11.90
2024-01-19T06:30:09.755Z,12.00
2024-01-19T06:34:12.901Z,12.53
2024-01-19T06:38:15.832Z,14.57
2024-01-19T06:42:18.798Z,13.50
2024-01-19T06:46:23.215Z,13.48
2024-01-19T06:50:26.237Z,12.02
2024-01-19T06:54:29.178Z,11.88
2024-01-19T06:58:32.080Z,12.35
2024-01-19T07:02:36.343Z,13.73
2024-01-19T07:06:39.533Z,12.80
2024-01-19T07:10:42.803Z,11.45
2024-01-19T07:14:45.816Z,12.43
2024-01-19T07:18:50.283Z,16.65
2024-01-19T07:22:54.292Z,11.80
2024-01-19T07:26:57.306Z,13.03
2024-01-19T07:31:00.336Z,12.90
2024-01-19T07:35:05.120Z,12.52
2024-01-19T07:39:08.716Z,13.90
2024-01-19T07:43:11.697Z,15.25
2024-01-19T07:47:14.616Z,14.60
2024-01-19T07:51:19.863Z,15.27
2024-01-19T07:55:22.785Z,12.82
2024-01-19T07:59:25.675Z,21.48
2024-01-19T08:03:28.683Z,13.98
2024-01-19T08:07:33.031Z,13.50
2024-01-19T08:15:39.047Z,15.35
2024-01-19T08:19:42.005Z,13.75
2024-01-19T08:23:46.394Z,13.63
2024-01-19T08:27:49.470Z,14.35
2024-01-19T08:31:56.171Z,13.60
2024-01-19T08:35:59.492Z,12.60
2024-01-19T08:40:03.847Z,12.87
2024-01-19T08:44:07.338Z,14.85
2024-01-19T08:48:10.308Z,14.95
2024-01-19T08:52:13.797Z,16.67
2024-01-19T08:56:22.646Z,16.45
2024-01-19T09:00:25.698Z,15.27
2024-01-19T09:04:29.218Z,13.85
2024-01-19T09:08:32.213Z,13.75
2024-01-19T09:12:36.650Z,12.25
2024-01-19T09:16:39.561Z,11.05
2024-01-19T09:20:42.680Z,10.43
2024-01-19T09:24:47.397Z,11.05
2024-01-19T09:28:52.293Z,11.65
2024-01-19T09:32:55.270Z,14.13
2024-01-19T09:36:58.351Z,11.85
2024-01-19T09:41:08.244Z,13.57
2024-01-19T09:49:30.932Z,12.38
2024-01-19T09:53:40.751Z,12.43
2024-01-19T09:57:47.534Z,12.13
2024-01-19T10:01:54.661Z,11.18
2024-01-19T10:05:57.763Z,10.18
2024-01-19T10:10:00.964Z,11.13
2024-01-19T10:14:03.937Z,10.48
2024-01-19T10:18:09.293Z,10.90
2024-01-19T10:22:29.311Z,10.93
2024-01-19T10:26:32.326Z,10.80
2024-01-19T10:30:35.328Z,10.90
2024-01-19T10:34:39.672Z,9.85
2024-01-19T10:38:42.681Z,8.88
2024-01-19T10:42:47.127Z,8.23
2024-01-19T10:46:51.466Z,8.55
2024-01-19T10:51:03.698Z,7.72
2024-01-19T10:55:06.860Z,7.15
2024-01-19T10:59:13.880Z,7.72
2024-01-19T11:03:18.769Z,8.43
2024-01-19T11:07:23.268Z,8.10
2024-01-19T11:11:32.776Z,7.32
2024-01-19T11:15:37.915Z,8.00
2024-01-19T11:19:41.010Z,7.85
2024-01-19T11:23:46.306Z,7.60
2024-01-19T11:27:59.316Z,7.55
2024-01-19T11:32:03.415Z,8.10
2024-01-19T11:36:07.124Z,7.65
2024-01-19T11:40:11.886Z,8.15
2024-01-19T11:44:44.202Z,8.43
2024-01-19T11:48:49.245Z,8.07
2024-01-19T11:52:57.087Z,8.38
2024-01-19T11:57:19.404Z,7.55
2024-01-19T12:01:22.964Z,9.50
2024-01-19T12:05:27.771Z,8.38
2024-01-19T12:09:30.769Z,7.57
2024-01-19T12:13:36.499Z,8.25
2024-01-19T12:17:41.978Z,7.85
2024-01-19T12:21:45.263Z,7.53
2024-01-19T12:25:48.263Z,8.20
2024-01-19T12:29:52.737Z,7.93
2024-01-19T12:33:55.727Z,7.45
2024-01-19T12:37:58.667Z,9.23
2024-01-19T12:42:03.808Z,6.75
2024-01-19T12:46:10.152Z,6.45
2024-01-19T12:50:22.656Z,6.50
2024-01-19T12:54:43.175Z,6.30
2024-01-19T12:58:46.185Z,7.25
2024-01-19T13:02:54.423Z,5.78
2024-01-19T13:06:57.382Z,4.97
2024-01-19T13:11:08.119Z,16.55
2024-01-19T13:15:12.434Z,8.65
2024-01-19T13:19:17.823Z,21.13
2024-01-19T13:23:21.954Z,9.50
2024-01-19T13:27:24.878Z,6.60
2024-01-19T13:31:27.911Z,6.53
2024-01-19T13:35:33.267Z,6.93
2024-01-19T13:39:36.409Z,5.85
2024-01-19T13:43:42.587Z,5.93
2024-01-19T13:47:45.455Z,5.72
2024-01-19T13:51:49.867Z,7.18
2024-01-19T13:55:52.853Z,6.75
2024-01-19T13:59:55.809Z,10.77
2024-01-19T14:03:58.870Z,5.60
2024-01-19T14:08:04.163Z,6.55
2024-01-19T14:12:08.894Z,5.88
2024-01-19T14:16:11.905Z,5.53
2024-01-19T14:20:14.966Z,6.20
2024-01-19T14:24:21.534Z,6.68
2024-01-19T14:28:24.448Z,6.72
2024-01-19T14:32:27.919Z,7.28
2024-01-19T14:36:30.983Z,5.18
2024-01-19T14:40:35.407Z,4.57
2024-01-19T14:44:38.830Z,6.00
2024-01-19T14:49:08.095Z,6.80
2024-01-19T14:53:14.514Z,4.47
2024-01-19T14:57:20.823Z,5.18
2024-01-19T15:01:24.258Z,5.10
2024-01-19T15:05:27.174Z,5.80
2024-01-19T15:09:31.271Z,5.85
2024-01-19T15:13:46.971Z,5.72
2024-01-19T15:17:50.277Z,9.68
2024-01-19T15:21:56.473Z,7.50
2024-01-19T15:25:59.491Z,12.50
2024-01-19T15:30:04.409Z,6.60
2024-01-19T15:34:07.590Z,8.23
2024-01-19T15:38:10.698Z,9.25
2024-01-19T15:42:14.652Z,8.23
2024-01-19T15:46:23.461Z,7.20
2024-01-19T15:50:26.522Z,7.95
2024-01-19T15:54:29.577Z,8.27
2024-01-19T15:58:34.326Z,8.18
2024-01-19T16:02:38.807Z,7.18
2024-01-19T16:06:41.849Z,7.28
2024-01-19T16:10:44.900Z,8.88
2024-01-19T16:14:47.852Z,8.90
2024-01-19T16:18:52.722Z,8.30
2024-01-19T16:22:55.679Z,8.38
2024-01-19T16:26:59.415Z,8.82
2024-01-19T16:31:02.331Z,8.77
2024-01-19T16:35:07.506Z,7.72
2024-01-19T16:39:11.213Z,8.25
2024-01-19T16:43:14.221Z,9.77
2024-01-19T16:47:21.931Z,8.73
2024-01-19T16:51:27.409Z,9.30
2024-01-19T16:55:30.530Z,17.35
2024-01-19T16:59:35.334Z,13.65
2024-01-19T17:03:38.377Z,9.05
2024-01-19T17:07:42.674Z,10.93
2024-01-19T17:11:45.676Z,11.07
2024-01-19T17:15:48.572Z,12.43
2024-01-19T17:19:51.574Z,10.05
2024-01-19T17:23:57.904Z,11.13
2024-01-19T17:28:05.394Z,10.77
2024-01-19T17:32:08.825Z,9.70
2024-01-19T17:36:14.669Z,9.75
2024-01-19T17:40:20.162Z,9.65
2024-01-19T17:44:23.310Z,8.90
2024-01-19T17:48:26.544Z,8.77
2024-01-19T17:52:38.485Z,9.73
2024-01-19T17:56:42.856Z,10.48
2024-01-19T18:00:46.345Z,8.35
2024-01-19T18:04:49.765Z,9.65
2024-01-19T18:08:54.275Z,10.80
2024-01-19T18:12:59.152Z,7.78
2024-01-19T18:17:02.367Z,8.90
2024-01-19T18:21:06.298Z,7.80
2024-01-19T18:25:10.398Z,8.18
2024-01-19T18:29:16.600Z,8.25
2024-01-19T18:33:19.799Z,5.57
2024-01-19T18:37:22.775Z,6.80
2024-01-19T18:41:25.807Z,9.25
2024-01-19T18:45:30.178Z,8.35
2024-01-19T18:49:33.645Z,11.10
2024-01-19T18:53:36.829Z,7.40
2024-01-19T18:57:39.998Z,6.73
2024-01-19T19:01:44.987Z,6.32
2024-01-19T19:05:50.002Z,6.78
2024-01-19T19:09:54.675Z,6.78
2024-01-19T19:13:58.951Z,6.18
2024-01-19T19:18:08.316Z,7.50
2024-01-19T19:22:11.306Z,7.43
2024-01-19T19:26:14.815Z,6.95
2024-01-19T19:30:18.140Z,10.20
2024-01-19T19:34:23.422Z,7.45
2024-01-19T19:38:26.479Z,6.63
2024-01-19T19:42:29.557Z,7.60
2024-01-19T19:46:33.373Z,10.68
2024-01-19T19:50:38.080Z,8.95
2024-01-19T19:54:41.920Z,6.47
2024-01-19T19:58:45.192Z,5.22
2024-01-19T20:02:48.523Z,5.10
2024-01-19T20:06:52.980Z,5.13
2024-01-19T20:10:55.996Z,4.90
2024-01-19T20:14:58.922Z,4.93
2024-01-19T20:19:02.406Z,5.25
2024-01-19T20:23:07.297Z,5.47
2024-01-19T20:27:10.439Z,6.10
2024-01-19T20:31:13.991Z,5.63
2024-01-19T20:35:17.574Z,7.57
2024-01-19T20:39:22.544Z,7.13
2024-01-19T20:43:25.898Z,7.03
2024-01-19T20:47:28.905Z,7.80
2024-01-19T20:51:33.865Z,8.27
2024-01-19T20:55:39.887Z,7.15
2024-01-19T20:59:42.966Z,8.73
2024-01-19T21:03:47.033Z,7.47
2024-01-19T21:07:54.432Z,8.17
2024-01-19T21:12:03.791Z,7.90
2024-01-19T21:16:07.177Z,6.22
2024-01-19T21:20:11.618Z,6.60
2024-01-19T21:24:14.743Z,7.07
2024-01-19T21:28:19.165Z,7.10
2024-01-19T21:32:22.130Z,9.67
2024-01-19T21:36:25.136Z,8.00
2024-01-19T21:40:28.569Z,6.47
2024-01-19T21:44:33.089Z,6.67
2024-01-19T21:48:37.494Z,6.90
2024-01-19T21:52:40.962Z,6.80
2024-01-19T21:56:45.914Z,6.10
2024-01-19T22:00:50.983Z,6.80
2024-01-19T22:04:54.341Z,6.83
2024-01-19T22:08:57.522Z,6.67
2024-01-19T22:13:00.495Z,6.33
2024-01-19T22:17:06.124Z,5.67
2024-01-19T22:21:09.080Z,5.63
2024-01-19T22:25:12.569Z,5.70
2024-01-19T22:29:15.984Z,6.03
2024-01-19T22:33:21.799Z,5.53
2024-01-19T22:37:25.086Z,5.80
2024-01-19T22:41:28.251Z,6.20
2024-01-19T22:45:31.422Z,6.53
2024-01-19T22:49:35.833Z,6.90
2024-01-19T22:53:38.950Z,6.20
2024-01-19T22:57:41.923Z,8.40
2024-01-19T23:01:48.249Z,5.90
2024-01-19T23:05:52.794Z,6.70
2024-01-19T23:09:55.826Z,8.80
2024-01-19T23:13:58.797Z,11.03
2024-01-19T23:18:02.581Z,7.77
2024-01-19T23:22:07.032Z,5.87
2024-01-19T23:26:10.339Z,5.80
2024-01-19T23:30:13.653Z,7.70
2024-01-19T23:34:16.762Z,6.80
2024-01-19T23:38:21.534Z,5.43
2024-01-19T23:42:26.521Z,5.40
2024-01-19T23:46:30.036Z,5.97
2024-01-19T23:50:33.034Z,6.20
2024-01-19T23:54:37.638Z,6.07
2024-01-19T23:58:40.635Z,5.00
